Time;durP1;ratioP1;P1;durP2;ratioP2;P2;SDS_P1;SDS_P2;PMS_P1;PMS_P2;Temp;Humidity;BMP_temperature;BMP_pressure;BME280_temperature;BME280_humidity;BME280_pressure;Samples;Min_cycle;Max_cycle;Signal;HPM_P1;HPM_P2
2024/01/04 00:00:25;;;;;;;3.65;1.50;;;;;;;13.98;45.83;98326.22;5091361;28;20044;-45
2024/01/04 00:02:52;;;;;;;5.18;1.20;;;;;;;13.74;46.15;98333.34;5092367;28;20028;-45
2024/01/04 00:05:18;;;;;;;8.48;2.50;;;;;;;13.49;46.53;98334.38;5091013;28;20031;-45
2024/01/04 00:07:44;;;;;;;4.70;1.88;;;;;;;13.27;47.36;98335.91;5092342;28;20031;-45
2024/01/04 00:10:13;;;;;;;5.25;1.55;;;;;;;13.16;47.45;98342.78;5090997;28;20032;-45
2024/01/04 00:12:39;;;;;;;5.15;1.58;;;;;;;13.06;48.01;98339.84;5090965;28;20026;-45
2024/01/04 00:15:06;;;;;;;5.70;1.50;;;;;;;12.97;48.16;98345.44;5090866;28;20021;-45
2024/01/04 00:17:32;;;;;;;4.43;1.60;;;;;;;12.92;48.54;98347.94;5090888;28;20105;-47
2024/01/04 00:19:58;;;;;;;5.28;1.70;;;;;;;12.92;48.68;98341.88;5090940;28;20490;-47
2024/01/04 00:22:23;;;;;;;7.13;2.90;;;;;;;12.93;49.02;98346.91;5090751;28;20024;-47
2024/01/04 00:24:49;;;;;;;9.90;3.20;;;;;;;12.85;49.17;98341.97;5091036;28;20035;-47
2024/01/04 00:27:15;;;;;;;6.95;2.30;;;;;;;12.76;49.68;98345.94;5092008;28;20024;-47
2024/01/04 00:29:42;;;;;;;11.88;4.68;;;;;;;12.61;49.93;98343.69;5090614;28;20111;-47
2024/01/04 00:32:09;;;;;;;7.15;3.45;;;;;;;12.59;50.11;98333.38;5091750;28;20040;-48
2024/01/04 00:34:35;;;;;;;10.00;3.90;;;;;;;12.58;50.52;98339.69;5090633;28;20020;-47
2024/01/04 00:37:01;;;;;;;7.05;1.95;;;;;;;12.57;50.19;98337.25;5091924;28;20089;-47
2024/01/04 00:39:26;;;;;;;6.75;1.50;;;;;;;12.51;50.54;98336.31;5091926;28;20031;-47
2024/01/04 00:41:53;;;;;;;7.88;1.60;;;;;;;12.41;50.25;98346.56;5090520;28;20031;-47
2024/01/04 00:44:19;;;;;;;8.25;2.55;;;;;;;12.42;50.65;98340.28;5090500;28;20111;-47
2024/01/04 00:46:45;;;;;;;7.10;1.88;;;;;;;12.55;51.15;98339.31;5091818;28;20393;-47
2024/01/04 00:49:11;;;;;;;5.68;1.92;;;;;;;12.57;50.48;98338.06;5091702;28;20024;-47
2024/01/04 00:51:37;;;;;;;5.07;1.45;;;;;;;12.51;50.32;98343.41;5092353;28;20024;-49
2024/01/04 00:54:03;;;;;;;6.32;1.92;;;;;;;12.26;50.83;98338.25;5094879;28;20016;-49
2024/01/04 00:56:33;;;;;;;5.75;2.47;;;;;;;12.16;51.04;98339.56;5094849;28;20516;-49
2024/01/04 00:59:02;;;;;;;6.30;1.67;;;;;;;12.24;51.10;98349.00;5095896;28;20132;-49
2024/01/04 01:01:30;;;;;;;7.75;1.98;;;;;;;12.26;51.32;98352.19;5094737;28;20039;-49
2024/01/04 01:03:57;;;;;;;9.25;3.05;;;;;;;12.29;51.76;98361.47;5095972;28;20035;-49
2024/01/04 01:06:23;;;;;;;6.50;3.13;;;;;;;12.28;51.02;98367.78;5095663;28;20426;-49
2024/01/04 01:08:49;;;;;;;3.63;1.25;;;;;;;12.23;51.14;98365.78;5094222;28;20070;-48
2024/01/04 01:11:14;;;;;;;4.57;1.23;;;;;;;12.15;51.39;98374.78;5094194;28;20028;-49
2024/01/04 01:13:40;;;;;;;5.88;1.42;;;;;;;12.10;51.52;98379.88;5095590;28;20020;-49
2024/01/04 01:16:08;;;;;;;3.70;1.40;;;;;;;12.05;51.58;98376.28;5094146;28;20465;-49
2024/01/04 01:18:40;;;;;;;8.18;2.83;;;;;;;12.09;52.17;98372.19;5095377;28;20020;-49
2024/01/04 01:21:06;;;;;;;5.57;1.40;;;;;;;12.23;52.03;98364.97;5095380;28;20035;-49
2024/01/04 01:23:32;;;;;;;4.28;1.30;;;;;;;12.30;51.50;98368.38;5094063;28;20036;-49
2024/01/04 01:25:58;;;;;;;5.47;1.75;;;;;;;12.25;51.06;98363.72;5094178;28;20020;-49
2024/01/04 01:28:24;;;;;;;7.93;3.65;;;;;;;12.18;51.58;98371.72;5095245;28;20089;-49
2024/01/04 01:30:51;;;;;;;5.28;1.77;;;;;;;12.24;51.59;98371.88;5094837;28;20064;-50
2024/01/04 01:33:17;;;;;;;12.50;7.53;;;;;;;12.34;51.56;98372.97;5093887;28;20028;-49
2024/01/04 01:35:43;;;;;;;9.25;3.15;;;;;;;12.45;51.07;98376.69;5095088;28;20024;-50
2024/01/04 01:38:08;;;;;;;9.07;2.90;;;;;;;12.38;51.17;98382.03;5095071;28;20386;-49
2024/01/04 01:40:34;;;;;;;4.90;2.50;;;;;;;12.42;51.40;98390.28;5094996;28;20035;-49
2024/01/04 01:43:00;;;;;;;4.90;1.55;;;;;;;12.40;51.10;98400.22;5093715;28;20024;-49
2024/01/04 01:45:26;;;;;;;9.52;2.63;;;;;;;12.25;51.03;98394.50;5093892;28;20032;-49
2024/01/04 01:47:52;;;;;;;3.08;1.40;;;;;;;12.13;51.57;98391.78;5094984;28;20442;-49
2024/01/04 01:50:21;;;;;;;4.38;1.40;;;;;;;12.04;51.74;98401.00;5093373;28;20020;-49
2024/01/04 01:52:52;;;;;;;4.60;1.63;;;;;;;11.99;51.98;98397.19;5094732;28;20016;-49
2024/01/04 01:55:19;;;;;;;7.82;1.63;;;;;;;12.03;52.49;98402.00;5094721;28;20436;-49
2024/01/04 01:57:45;;;;;;;7.65;1.50;;;;;;;12.12;52.05;98409.41;5094812;28;20028;-49
2024/01/04 02:00:13;;;;;;;9.00;2.10;;;;;;;12.23;52.27;98407.88;5093374;28;20035;-49
2024/01/04 02:02:39;;;;;;;7.38;1.67;;;;;;;12.30;51.87;98410.47;5093255;28;20052;-49
2024/01/04 02:05:07;;;;;;;5.38;1.33;;;;;;;12.25;51.42;98403.19;5094543;28;20051;-49
2024/01/04 02:07:33;;;;;;;19.90;10.45;;;;;;;12.13;51.81;98407.56;5094537;28;20024;-49
2024/01/04 02:10:00;;;;;;;13.05;7.07;;;;;;;12.16;52.16;98404.53;5094806;28;20110;-49
2024/01/04 02:12:26;;;;;;;9.02;3.58;;;;;;;12.16;51.74;98401.91;5094491;28;20028;-49
2024/01/04 02:14:54;;;;;;;7.93;2.22;;;;;;;12.15;52.38;98405.53;5093226;28;20034;-49
2024/01/04 02:17:25;;;;;;;7.78;1.50;;;;;;;12.19;52.02;98406.69;5094295;28;20017;-49
2024/01/04 02:19:52;;;;;;;8.43;2.70;;;;;;;12.07;51.64;98406.59;5094406;28;20410;-49
2024/01/04 02:22:18;;;;;;;2.35;0.90;;;;;;;11.99;51.94;98410.34;5094257;28;20031;-49
2024/01/04 02:24:47;;;;;;;4.95;1.20;;;;;;;11.85;51.87;98405.38;5093272;28;20126;-49
2024/01/04 02:27:13;;;;;;;8.02;1.80;;;;;;;11.73;52.15;98408.72;5094141;28;20016;-49
2024/01/04 02:29:38;;;;;;;6.40;1.50;;;;;;;11.79;52.65;98405.22;5075984;28;20031;-49
2024/01/04 02:32:05;;;;;;;5.93;2.20;;;;;;;11.90;51.88;98403.72;5093770;28;20422;-50
2024/01/04 02:34:31;;;;;;;5.57;1.73;;;;;;;12.03;52.21;98397.53;5094041;28;20502;-49
2024/01/04 02:37:00;;;;;;;5.03;1.42;;;;;;;12.15;51.65;98397.63;5093855;28;20027;-49
2024/01/04 02:39:26;;;;;;;13.48;9.35;;;;;;;12.12;51.39;98396.25;5093884;28;20059;-49
2024/01/04 02:41:51;;;;;;;8.50;5.00;;;;;;;12.23;51.39;98401.81;5093866;28;20078;-49
2024/01/04 02:44:17;;;;;;;8.85;5.50;;;;;;;12.33;51.03;98391.59;5092519;28;20020;-49
2024/01/04 02:46:43;;;;;;;6.75;1.90;;;;;;;12.38;50.59;98397.81;5092759;28;20394;-49
2024/01/04 02:49:09;;;;;;;5.95;1.92;;;;;;;12.47;50.91;98400.94;5093645;28;20020;-49
2024/01/04 02:51:35;;;;;;;5.85;1.65;;;;;;;12.63;50.06;98404.81;5093750;28;20122;-49
2024/01/04 02:54:00;;;;;;;3.67;1.42;;;;;;;12.63;49.72;98410.09;5093656;28;20016;-49
2024/01/04 02:56:26;;;;;;;8.10;1.67;;;;;;;12.62;50.13;98411.13;5093860;28;20020;-49
2024/01/04 02:58:52;;;;;;;5.13;1.42;;;;;;;12.62;50.14;98413.75;5093555;28;20036;-49
2024/01/04 03:01:22;;;;;;;5.57;1.40;;;;;;;12.72;50.00;98419.31;5093483;28;20028;-49
2024/01/04 03:03:51;;;;;;;3.83;1.25;;;;;;;12.73;49.49;98415.63;5093520;28;20044;-49
2024/01/04 03:06:27;;;;;;;6.18;2.03;;;;;;;12.78;49.45;98425.53;5092062;28;20031;-49
2024/01/04 03:08:53;;;;;;;12.38;2.72;;;;;;;12.89;49.65;98431.88;5093584;28;20075;-49
2024/01/04 03:11:19;;;;;;;8.60;2.00;;;;;;;12.87;49.36;98421.56;5092266;28;20032;-49
2024/01/04 03:13:49;;;;;;;6.50;2.55;;;;;;;12.72;49.95;98421.94;5092880;28;20028;-49
2024/01/04 03:16:15;;;;;;;13.57;5.43;;;;;;;12.99;50.49;98434.78;5091891;28;20028;-49
2024/01/04 03:18:41;;;;;;;7.07;2.25;;;;;;;13.33;48.74;98427.28;5091871;28;20036;-49
2024/01/04 03:21:08;;;;;;;9.18;3.58;;;;;;;13.45;48.39;98417.56;5093106;28;20157;-49
2024/01/04 03:23:34;;;;;;;4.88;1.60;;;;;;;13.53;47.27;98406.69;5093061;28;20513;-49
2024/01/04 03:26:00;;;;;;;10.70;4.43;;;;;;;13.52;48.12;98412.19;5092961;28;20111;-49
2024/01/04 03:28:29;;;;;;;15.95;5.60;;;;;;;13.55;48.86;98411.75;5092989;28;20116;-49
2024/01/04 03:30:54;;;;;;;14.38;3.33;;;;;;;13.72;48.48;98414.53;5092707;28;20521;-50
2024/01/04 03:33:20;;;;;;;8.20;2.00;;;;;;;13.73;47.06;98408.22;5091625;28;20111;-49
2024/01/04 03:35:46;;;;;;;10.55;2.70;;;;;;;13.41;48.07;98397.97;5093079;28;20024;-49
2024/01/04 03:38:12;;;;;;;5.57;1.98;;;;;;;13.17;48.39;98403.13;5091473;28;20520;-49
2024/01/04 03:40:37;;;;;;;5.32;2.20;;;;;;;12.97;49.07;98398.13;5092711;28;20106;-49
2024/01/04 03:43:04;;;;;;;8.77;2.70;;;;;;;12.81;50.13;98398.75;5092658;28;20451;-49
2024/01/04 03:45:33;;;;;;;9.02;2.83;;;;;;;12.73;49.64;98393.78;5092671;28;20099;-49
2024/01/04 03:48:00;;;;;;;7.13;1.92;;;;;;;12.49;49.65;98393.63;5075253;28;20128;-49
2024/01/04 03:50:25;;;;;;;6.05;1.83;;;;;;;12.42;49.96;98397.38;5091167;28;20031;-49
2024/01/04 03:52:51;;;;;;;8.48;1.73;;;;;;;12.42;50.17;98403.44;5092603;28;20221;-49
2024/01/04 03:55:17;;;;;;;5.57;1.75;;;;;;;12.48;50.54;98399.13;5091209;28;20028;-49
2024/01/04 03:57:43;;;;;;;6.80;2.22;;;;;;;12.60;50.20;98394.75;5092478;28;20443;-49
2024/01/04 04:00:10;;;;;;;9.88;3.05;;;;;;;12.50;50.47;98395.25;5091093;28;20032;-49
2024/01/04 04:02:36;;;;;;;9.60;2.40;;;;;;;12.19;50.94;98390.91;5074147;28;20476;-49
2024/01/04 04:05:02;;;;;;;11.70;3.85;;;;;;;12.04;51.81;98390.47;5092319;28;20108;-49
2024/01/04 04:07:27;;;;;;;5.60;1.60;;;;;;;12.10;51.39;98393.03;5092339;28;20020;-49
2024/01/04 04:09:53;;;;;;;13.27;4.50;;;;;;;12.10;51.79;98386.97;5092217;28;20488;-49
2024/01/04 04:12:19;;;;;;;8.70;3.13;;;;;;;12.10;52.23;98389.59;5092207;28;20025;-49
2024/01/04 04:14:45;;;;;;;6.22;2.00;;;;;;;11.93;51.76;98394.59;5092237;28;20025;-49
2024/01/04 04:17:10;;;;;;;11.80;3.90;;;;;;;11.91;52.68;98389.59;5092055;28;20404;-49
2024/01/04 04:19:39;;;;;;;12.98;4.10;;;;;;;11.96;53.56;98391.56;5092098;28;20038;-49
2024/01/04 04:22:05;;;;;;;10.35;2.92;;;;;;;11.88;52.43;98391.81;5092036;28;20077;-50
2024/01/04 04:24:34;;;;;;;14.35;6.00;;;;;;;11.58;53.76;98400.31;5090898;28;20024;-49
2024/01/04 04:26:59;;;;;;;5.50;1.98;;;;;;;11.53;53.97;98400.16;5091233;28;20490;-49
2024/01/04 04:29:25;;;;;;;14.23;3.97;;;;;;;11.45;53.51;98397.78;5090630;28;20035;-49
2024/01/04 04:31:51;;;;;;;8.30;1.65;;;;;;;11.28;53.69;98406.19;5091848;28;20043;-49
2024/01/04 04:34:16;;;;;;;9.27;1.92;;;;;;;11.20;53.89;98407.22;5090662;28;20024;-49
2024/01/04 04:36:42;;;;;;;9.57;2.80;;;;;;;11.05;54.44;98408.56;5091895;28;20548;-49
2024/01/04 04:39:08;;;;;;;10.02;2.05;;;;;;;10.97;54.98;98407.78;5091928;28;20402;-49
2024/01/04 04:41:34;;;;;;;6.55;1.98;;;;;;;11.02;55.08;98414.22;5090519;28;20027;-50
2024/01/04 04:44:00;;;;;;;9.60;3.28;;;;;;;10.98;55.20;98414.63;5090518;28;20032;-49
2024/01/04 04:46:26;;;;;;;14.80;4.88;;;;;;;10.77;55.65;98414.94;5092085;28;20020;-49
2024/01/04 04:48:56;;;;;;;13.82;3.50;;;;;;;10.57;56.04;98417.63;5090657;28;20024;-49
2024/01/04 04:51:25;;;;;;;8.10;2.53;;;;;;;10.57;56.56;98420.25;5090412;28;20072;-49
2024/01/04 04:53:52;;;;;;;6.65;2.35;;;;;;;10.53;57.16;98422.47;5091767;28;20017;-49
2024/01/04 04:56:18;;;;;;;6.15;2.05;;;;;;;10.45;56.95;98427.94;5090662;28;20036;-49
2024/01/04 04:58:44;;;;;;;7.22;2.22;;;;;;;10.25;57.62;98421.91;5090642;28;20093;-49
2024/01/04 05:01:09;;;;;;;6.55;2.15;;;;;;;10.06;57.95;98426.97;5090370;28;20055;-49
2024/01/04 05:03:36;;;;;;;9.32;2.40;;;;;;;10.04;58.85;98434.25;5091888;28;20020;-49
2024/01/04 05:06:02;;;;;;;7.97;4.05;;;;;;;9.96;58.99;98437.03;5090595;28;20024;-47
2024/01/04 05:08:28;;;;;;;9.82;3.30;;;;;;;9.86;59.76;98441.88;5090332;28;20029;-47
2024/01/04 05:10:54;;;;;;;10.90;2.03;;;;;;;9.87;60.12;98438.28;5091515;28;20517;-47
2024/01/04 05:13:20;;;;;;;9.40;2.65;;;;;;;9.83;60.15;98430.00;5091501;28;20028;-47
2024/01/04 05:15:45;;;;;;;6.53;2.90;;;;;;;9.69;60.70;98428.38;5091591;28;20021;-47
2024/01/04 05:18:11;;;;;;;7.43;2.45;;;;;;;9.60;61.63;98428.56;5091750;28;20430;-47
2024/01/04 05:20:37;;;;;;;8.55;2.15;;;;;;;9.60;61.48;98430.41;5091539;28;20385;-47
2024/01/04 05:23:03;;;;;;;10.88;3.00;;;;;;;9.67;62.64;98439.06;5090181;28;20024;-47
2024/01/04 05:25:29;;;;;;;17.15;5.85;;;;;;;10.06;62.10;98437.47;5090132;28;20107;-47
2024/01/04 05:27:55;;;;;;;10.23;2.97;;;;;;;10.19;61.38;98447.13;5090171;28;20524;-47
2024/01/04 05:30:20;;;;;;;10.32;4.57;;;;;;;10.35;61.08;98451.16;5091325;28;20012;-47
2024/01/04 05:32:46;;;;;;;9.57;2.28;;;;;;;10.56;59.92;98453.56;5091195;28;20044;-47
2024/01/04 05:35:12;;;;;;;6.40;2.00;;;;;;;10.46;59.18;98457.59;5090023;28;20521;-47
2024/01/04 05:37:38;;;;;;;6.72;2.22;;;;;;;10.25;59.75;98466.50;5092983;28;20073;-47
2024/01/04 05:40:05;;;;;;;12.40;7.75;;;;;;;10.46;61.07;98468.91;5095096;28;20036;-47
2024/01/04 05:42:31;;;;;;;13.80;5.50;;;;;;;10.91;60.67;98465.56;5095161;28;20047;-47
2024/01/04 05:44:56;;;;;;;7.57;2.42;;;;;;;11.14;58.82;98465.06;5095067;28;20095;-47
2024/01/04 05:47:22;;;;;;;7.47;2.42;;;;;;;10.95;57.83;98467.56;5094976;28;20085;-47
2024/01/04 05:49:48;;;;;;;9.85;6.78;;;;;;;10.70;58.85;98464.00;5094831;28;20035;-47
2024/01/04 05:52:14;;;;;;;9.20;4.07;;;;;;;10.77;59.65;98465.59;5093549;28;20089;-47
2024/01/04 05:54:39;;;;;;;7.57;3.20;;;;;;;10.73;58.65;98461.78;5095080;28;20473;-47
2024/01/04 05:57:05;;;;;;;12.57;3.97;;;;;;;10.67;59.66;98464.44;5094788;28;20024;-47
2024/01/04 05:59:31;;;;;;;10.25;4.28;;;;;;;10.88;59.68;98458.88;5093443;28;20028;-47
2024/01/04 06:01:57;;;;;;;8.73;3.13;;;;;;;10.91;58.56;98465.56;5094681;28;20488;-47
2024/01/04 06:04:24;;;;;;;11.15;3.70;;;;;;;10.90;58.07;98469.19;5093325;28;20111;-47
2024/01/04 06:06:50;;;;;;;10.50;4.45;;;;;;;10.81;58.06;98478.31;5094620;28;20048;-47
2024/01/04 06:09:20;;;;;;;9.85;3.17;;;;;;;10.61;58.20;98476.56;5094429;28;20066;-47
2024/01/04 06:11:50;;;;;;;9.50;2.65;;;;;;;10.45;59.29;98488.28;5093196;28;20028;-47
2024/01/04 06:14:17;;;;;;;11.75;3.67;;;;;;;10.41;59.20;98484.47;5093433;28;20111;-47
2024/01/04 06:16:42;;;;;;;9.15;3.10;;;;;;;10.29;59.41;98493.94;5093105;28;20055;-48
2024/01/04 06:19:08;;;;;;;7.97;3.25;;;;;;;10.16;59.85;98485.06;5094398;28;20099;-47
2024/01/04 06:21:34;;;;;;;8.68;3.10;;;;;;;10.18;59.76;98484.84;5093014;28;20077;-47
2024/01/04 06:24:00;;;;;;;8.85;3.40;;;;;;;10.24;59.51;98480.59;5094220;28;20439;-47
2024/01/04 06:26:25;;;;;;;9.02;2.53;;;;;;;10.20;59.51;98488.06;5094182;28;20366;-47
2024/01/04 06:28:51;;;;;;;14.27;3.05;;;;;;;10.17;59.49;98481.41;5094116;28;20367;-47
2024/01/04 06:31:18;;;;;;;7.53;2.95;;;;;;;10.20;59.93;98483.66;5092609;28;20047;-47
2024/01/04 06:33:44;;;;;;;10.63;3.08;;;;;;;10.34;59.63;98483.66;5093156;28;20032;-47
2024/01/04 06:36:09;;;;;;;6.97;2.67;;;;;;;10.65;59.65;98476.94;5094015;28;20111;-47
2024/01/04 06:38:35;;;;;;;16.23;5.78;;;;;;;10.90;58.63;98480.50;5094013;28;20051;-47
2024/01/04 06:41:03;;;;;;;10.35;3.47;;;;;;;11.05;57.92;98477.63;5093900;28;20367;-47
2024/01/04 06:43:30;;;;;;;12.02;2.83;;;;;;;11.24;57.21;98483.00;5093931;28;20028;-47
2024/01/04 06:45:57;;;;;;;8.23;3.00;;;;;;;11.36;56.10;98490.00;5093794;28;20081;-47
2024/01/04 06:48:23;;;;;;;8.88;3.40;;;;;;;11.20;56.46;98482.59;5091899;28;20677;-47
2024/01/04 06:50:49;;;;;;;11.57;5.75;;;;;;;11.26;58.10;98486.22;5075590;28;20026;-47
2024/01/04 06:53:15;;;;;;;10.80;4.32;;;;;;;11.79;57.68;98481.47;5093990;28;20394;-47
2024/01/04 06:55:42;;;;;;;9.80;4.22;;;;;;;12.12;56.34;98484.91;5093685;28;20028;-47
2024/01/04 06:58:09;;;;;;;11.82;5.05;;;;;;;12.32;55.06;98484.72;5092338;28;20034;-47
2024/01/04 07:00:35;;;;;;;16.42;6.20;;;;;;;12.46;55.16;98485.41;5093575;28;20036;-47
2024/01/04 07:03:02;;;;;;;15.43;6.75;;;;;;;12.81;55.14;98475.09;5092296;28;20065;-47
2024/01/04 07:05:28;;;;;;;14.77;6.25;;;;;;;13.06;54.08;98480.31;5092276;28;20119;-48
2024/01/04 07:07:53;;;;;;;11.10;5.28;;;;;;;13.14;53.76;98477.38;5093546;28;20107;-48
2024/01/04 07:10:19;;;;;;;12.65;3.67;;;;;;;13.11;51.93;98484.91;5093309;28;20505;-47
2024/01/04 07:12:46;;;;;;;16.00;4.07;;;;;;;12.51;51.60;98485.56;5092368;28;20025;-47
2024/01/04 07:15:12;;;;;;;7.97;3.65;;;;;;;11.91;52.71;98491.31;5093352;28;20028;-47
2024/01/04 07:17:38;;;;;;;11.02;4.30;;;;;;;11.50;54.28;98497.81;5091914;28;20119;-47
2024/01/04 07:20:04;;;;;;;18.17;4.82;;;;;;;11.31;54.91;98502.97;5091847;28;20028;-47
2024/01/04 07:22:30;;;;;;;16.25;4.90;;;;;;;11.32;56.21;98504.56;5091876;28;20402;-47
2024/01/04 07:24:56;;;;;;;11.88;3.83;;;;;;;11.39;55.41;98499.31;5093110;28;20028;-47
2024/01/04 07:27:22;;;;;;;13.13;3.90;;;;;;;11.20;55.66;98495.75;5091761;28;20038;-47
2024/01/04 07:29:48;;;;;;;14.32;4.15;;;;;;;11.06;56.00;98499.44;5091657;28;20024;-47
2024/01/04 07:32:18;;;;;;;7.40;3.00;;;;;;;10.95;56.27;98493.03;5092678;28;20059;-47
2024/01/04 07:34:46;;;;;;;9.20;3.20;;;;;;;10.86;56.55;98492.41;5092871;28;20020;-47
2024/01/04 07:37:11;;;;;;;11.95;4.78;;;;;;;10.84;57.18;98485.78;5092856;28;20047;-47
2024/01/04 07:39:37;;;;;;;16.67;4.35;;;;;;;10.94;56.77;98488.75;5092857;28;20524;-47
2024/01/04 07:42:03;;;;;;;10.32;3.80;;;;;;;11.11;56.58;98489.94;5092731;28;20047;-47
2024/01/04 07:44:30;;;;;;;7.22;3.08;;;;;;;11.23;56.31;98489.25;5092668;28;20486;-47
2024/01/04 07:46:56;;;;;;;14.15;3.90;;;;;;;11.36;55.54;98491.81;5091636;28;20103;-47
2024/01/04 07:49:22;;;;;;;12.23;4.40;;;;;;;11.36;55.82;98495.25;5092508;28;20542;-47
2024/01/04 07:51:47;;;;;;;10.70;3.92;;;;;;;11.39;55.90;98492.22;5092602;28;20023;-47
2024/01/04 07:54:13;;;;;;;13.32;4.80;;;;;;;11.43;55.73;98499.66;5092492;28;20020;-47
2024/01/04 07:56:39;;;;;;;12.55;5.82;;;;;;;11.50;55.90;98503.06;5091190;28;20027;-47
2024/01/04 07:59:04;;;;;;;15.18;4.63;;;;;;;11.47;56.03;98490.34;5092417;28;20035;-47
2024/01/04 08:01:30;;;;;;;13.75;5.18;;;;;;;11.68;55.58;98483.97;5092432;28;20055;-47
2024/01/04 08:03:56;;;;;;;12.68;4.70;;;;;;;11.83;54.63;98471.34;5092430;28;20134;-47
2024/01/04 08:06:22;;;;;;;11.98;4.03;;;;;;;11.78;54.23;98474.59;5074121;28;20119;-47
2024/01/04 08:08:47;;;;;;;14.82;5.20;;;;;;;12.07;54.87;98479.47;5090921;28;20028;-47
2024/01/04 08:11:13;;;;;;;12.80;4.53;;;;;;;12.31;54.40;98483.09;5092272;28;20023;-47
2024/01/04 08:13:39;;;;;;;10.02;3.92;;;;;;;12.55;53.42;98486.72;5092185;28;20024;-47
2024/01/04 08:16:07;;;;;;;14.82;4.32;;;;;;;12.69;52.49;98479.50;5092132;28;20139;-47
2024/01/04 08:18:32;;;;;;;14.35;4.50;;;;;;;12.59;51.99;98488.69;5092088;28;20498;-47
2024/01/04 08:20:58;;;;;;;10.75;4.43;;;;;;;12.39;51.80;98498.63;5092377;28;20031;-48
2024/01/04 08:23:24;;;;;;;15.02;4.80;;;;;;;11.96;53.00;98505.44;5090790;28;20062;-47
2024/01/04 08:25:49;;;;;;;16.35;4.63;;;;;;;11.70;53.52;98511.66;5090751;28;20027;-47
2024/01/04 08:28:15;;;;;;;22.58;5.15;;;;;;;11.51;54.39;98516.00;5090757;28;20016;-48
2024/01/04 08:30:42;;;;;;;15.82;3.42;;;;;;;11.60;54.64;98517.38;5090339;28;20401;-48
2024/01/04 08:33:08;;;;;;;9.82;3.53;;;;;;;12.10;54.62;98515.88;5091935;28;20040;-47
2024/01/04 08:35:34;;;;;;;11.43;4.15;;;;;;;12.68;53.42;98518.19;5090578;28;20030;-47
2024/01/04 08:38:00;;;;;;;14.82;3.60;;;;;;;13.26;52.66;98505.59;5090597;28;20119;-47
2024/01/04 08:40:27;;;;;;;11.13;3.60;;;;;;;14.04;50.76;98499.44;5090545;28;20035;-47
2024/01/04 08:42:52;;;;;;;9.20;3.50;;;;;;;14.46;48.99;98496.72;5090822;28;20481;-47
2024/01/04 08:45:18;;;;;;;8.73;4.28;;;;;;;14.27;47.69;98503.16;5091848;28;20077;-48
2024/01/04 08:47:44;;;;;;;22.10;10.43;;;;;;;14.71;47.58;98495.72;5090513;28;20024;-47
2024/01/04 08:50:11;;;;;;;18.75;8.52;;;;;;;15.28;45.81;98485.22;5091674;28;20032;-45
2024/01/04 08:52:37;;;;;;;19.98;8.52;;;;;;;15.03;45.49;98490.00;5090452;28;20024;-45
2024/01/04 08:55:03;;;;;;;9.48;3.97;;;;;;;14.67;46.25;98494.56;5090398;28;20024;-46
2024/01/04 08:57:30;;;;;;;16.38;4.22;;;;;;;14.71;47.41;98498.38;5091690;28;20406;-45
2024/01/04 08:59:56;;;;;;;11.80;2.90;;;;;;;15.22;47.27;98496.75;5091669;28;20024;-45
2024/01/04 09:02:22;;;;;;;19.17;4.20;;;;;;;15.82;46.32;98497.34;5090297;28;20035;-46
2024/01/04 09:04:48;;;;;;;12.52;3.50;;;;;;;15.78;45.75;98489.06;5090277;28;20383;-45
2024/01/04 09:07:14;;;;;;;16.50;3.33;;;;;;;15.41;46.17;98494.72;5091637;28;20085;-46
2024/01/04 09:09:40;;;;;;;18.25;4.43;;;;;;;15.22;46.73;98495.97;5090331;28;20558;-46
2024/01/04 09:12:06;;;;;;;17.33;4.03;;;;;;;15.44;46.28;98501.41;5092753;28;20036;-45
2024/01/04 09:14:32;;;;;;;15.48;5.35;;;;;;;15.96;45.15;98480.09;5094426;28;20028;-45
2024/01/04 09:16:58;;;;;;;22.02;8.18;;;;;;;15.76;45.06;98481.34;5095580;28;20106;-45
2024/01/04 09:19:24;;;;;;;17.08;4.95;;;;;;;15.85;45.47;98478.31;5095479;28;20627;-46
2024/01/04 09:21:50;;;;;;;20.83;6.75;;;;;;;16.88;44.30;98481.44;5095518;28;20016;-46
2024/01/04 09:24:20;;;;;;;17.08;6.57;;;;;;;18.06;42.49;98484.50;5095472;28;20020;-46
2024/01/04 09:26:46;;;;;;;13.73;6.72;;;;;;;19.24;40.30;98485.97;5095410;28;20024;-45
2024/01/04 09:29:13;;;;;;;17.35;5.30;;;;;;;20.45;38.67;98487.38;5094038;28;20033;-46
2024/01/04 09:31:40;;;;;;;15.55;4.50;;;;;;;21.37;36.66;98475.56;5076819;28;20131;-46
2024/01/04 09:34:06;;;;;;;11.70;4.18;;;;;;;21.67;35.47;98470.09;5093944;28;20105;-46
2024/01/04 09:36:32;;;;;;;13.38;5.18;;;;;;;21.14;36.21;98483.16;5094151;28;20035;-46
2024/01/04 09:38:58;;;;;;;15.57;5.70;;;;;;;20.48;37.30;98484.97;5093846;28;20024;-46
2024/01/04 09:41:44;;;;;;;16.02;5.03;;;;;;;19.95;37.99;98485.28;5095060;28;20024;-46
2024/01/04 09:44:11;;;;;;;12.43;4.57;;;;;;;20.08;37.80;98489.28;5093938;28;20038;-46
2024/01/04 09:46:38;;;;;;;12.90;4.38;;;;;;;20.83;37.09;98493.19;5095228;28;20430;-46
2024/01/04 09:49:09;;;;;;;16.42;4.70;;;;;;;21.72;36.22;98475.38;5094917;28;20027;-46
2024/01/04 09:51:39;;;;;;;16.48;5.20;;;;;;;22.45;34.22;98472.91;5094811;28;20382;-46
2024/01/04 09:54:09;;;;;;;12.60;4.80;;;;;;;22.91;33.03;98469.72;5093556;28;20056;-46
2024/01/04 09:56:43;;;;;;;13.35;5.90;;;;;;;23.03;32.25;98467.44;5093473;28;20030;-46
2024/01/04 09:59:12;;;;;;;12.17;5.07;;;;;;;23.21;32.72;98460.50;5094772;28;20023;-46
2024/01/04 10:01:39;;;;;;;11.48;5.32;;;;;;;23.73;31.47;98452.53;5094745;28;20262;-46
2024/01/04 10:04:13;;;;;;;15.13;5.70;;;;;;;23.95;30.92;98451.16;5094703;28;20012;-46
2024/01/04 10:06:46;;;;;;;11.35;5.03;;;;;;;23.38;31.13;98443.97;5093340;28;20043;-48
2024/01/04 10:09:27;;;;;;;15.55;5.32;;;;;;;23.04;31.33;98441.47;5094436;28;20032;-48
2024/01/04 10:12:11;;;;;;;14.00;6.70;;;;;;;21.98;32.19;98442.31;5093481;28;20032;-48
2024/01/04 10:14:37;;;;;;;11.80;4.63;;;;;;;22.26;32.08;98440.75;5093146;28;20516;-48
2024/01/04 10:17:04;;;;;;;14.38;5.32;;;;;;;22.46;31.88;98434.41;5076282;28;20020;-47
2024/01/04 10:19:32;;;;;;;16.58;6.00;;;;;;;23.48;31.17;98429.59;5094347;28;20020;-48
2024/01/04 10:22:10;;;;;;;17.17;10.82;;;;;;;24.75;29.64;98430.34;5093010;28;20031;-48
2024/01/04 10:24:37;;;;;;;12.05;5.45;;;;;;;25.53;28.09;98414.97;5091777;28;20028;-46
2024/01/04 10:27:05;;;;;;;19.50;9.07;;;;;;;25.91;27.52;98417.28;5094191;28;20508;-46
2024/01/04 10:29:37;;;;;;;13.38;7.53;;;;;;;26.09;27.38;98420.88;5092839;28;20028;-47
2024/01/04 10:32:04;;;;;;;16.70;6.50;;;;;;;26.09;26.76;98416.28;5093927;28;20044;-48
2024/01/04 10:34:37;;;;;;;20.48;5.82;;;;;;;25.99;27.21;98415.75;5094146;28;20069;-48
2024/01/04 10:37:14;;;;;;;17.48;6.65;;;;;;;25.75;27.33;98414.16;5092726;28;20463;-48
2024/01/04 10:39:41;;;;;;;15.30;6.13;;;;;;;25.35;27.19;98416.72;5075890;28;20031;-48
2024/01/04 10:42:09;;;;;;;14.85;4.82;;;;;;;24.76;27.74;98419.34;5092621;28;20036;-48
2024/01/04 10:44:35;;;;;;;11.32;4.82;;;;;;;24.75;27.98;98416.94;5092622;28;20032;-48
2024/01/04 10:47:03;;;;;;;14.38;4.63;;;;;;;24.78;28.20;98416.34;5092528;28;20032;-47
2024/01/04 10:49:29;;;;;;;12.85;3.92;;;;;;;24.90;27.78;98408.56;5093749;28;20054;-48
2024/01/04 10:52:03;;;;;;;11.70;4.25;;;;;;;24.89;27.92;98407.78;5093687;28;20024;-48
2024/01/04 10:54:33;;;;;;;10.77;4.27;;;;;;;24.24;28.29;98410.66;5093802;28;20028;-46
2024/01/04 10:57:00;;;;;;;10.25;3.75;;;;;;;23.57;29.33;98401.06;5075469;28;20085;-46
2024/01/04 10:59:30;;;;;;;17.30;4.57;;;;;;;23.66;29.40;98401.19;5093574;28;20035;-46
2024/01/04 11:02:01;;;;;;;13.68;5.03;;;;;;;23.98;28.57;98388.88;5093530;28;20133;-46
2024/01/04 11:04:29;;;;;;;12.43;4.47;;;;;;;24.11;28.08;98385.44;5092485;28;20056;-46
2024/01/04 11:06:55;;;;;;;16.65;3.97;;;;;;;24.22;27.72;98381.47;5092134;28;20059;-46
2024/01/04 11:09:22;;;;;;;12.95;4.03;;;;;;;24.44;27.78;98375.41;5092270;28;20024;-47
2024/01/04 11:11:51;;;;;;;18.83;3.83;;;;;;;24.14;27.50;98358.03;5093393;28;20024;-47
2024/01/04 11:14:21;;;;;;;8.63;3.25;;;;;;;23.63;27.68;98340.16;5093233;28;20016;-48
2024/01/04 11:17:02;;;;;;;12.90;4.22;;;;;;;23.12;29.00;98341.78;5093312;28;20016;-48
2024/01/04 11:20:08;;;;;;;5.90;3.65;;;;;;;23.22;28.88;98325.56;5092013;28;20024;-48
2024/01/04 11:22:36;;;;;;;10.13;3.13;;;;;;;23.40;27.06;98323.13;5093193;28;20093;-47
2024/01/04 11:25:16;;;;;;;19.55;7.47;;;;;;;23.28;27.74;98319.03;5093106;28;20031;-48
2024/01/04 11:27:42;;;;;;;8.35;3.33;;;;;;;23.29;26.87;98315.25;5093180;28;20513;-48